sensor_id;sensor_type;location;lat;lon;timestamp;temperature;humidity
15717;DHT22;7960;50.908;4.204;2022-09-11T00:00:46;16.30;99.90
15717;DHT22;7960;50.908;4.204;2022-09-11T00:03:13;16.30;99.90
15717;DHT22;7960;50.908;4.204;2022-09-11T00:05:41;16.40;99.90
15717;DHT22;7960;50.908;4.204;2022-09-11T00:08:10;16.30;99.90
15717;DHT22;7960;50.908;4.204;2022-09-11T00:10:39;16.30;99.90
15717;DHT22;7960;50.908;4.204;2022-09-11T00:13:06;16.30;99.90
15717;DHT22;7960;50.908;4.204;2022-09-11T00:15:36;16.40;99.90
15717;DHT22;7960;50.908;4.204;2022-09-11T00:18:05;16.40;99.90
15717;DHT22;7960;50.908;4.204;2022-09-11T00:20:32;16.40;99.90
15717;DHT22;7960;50.908;4.204;2022-09-11T00:23:00;16.40;99.90
15717;DHT22;7960;50.908;4.204;2022-09-11T00:25:31;16.30;99.90
15717;DHT22;7960;50.908;4.204;2022-09-11T00:27:59;16.30;99.90
15717;DHT22;7960;50.908;4.204;2022-09-11T00:30:26;16.30;99.90
15717;DHT22;7960;50.908;4.204;2022-09-11T00:32:53;16.30;99.90
15717;DHT22;7960;50.908;4.204;2022-09-11T00:35:21;16.30;99.90
15717;DHT22;7960;50.908;4.204;2022-09-11T00:37:48;16.30;99.90
15717;DHT22;7960;50.908;4.204;2022-09-11T00:40:17;16.20;99.90
15717;DHT22;7960;50.908;4.204;2022-09-11T00:42:44;16.10;99.90
15717;DHT22;7960;50.908;4.204;2022-09-11T00:45:18;16.20;99.90
15717;DHT22;7960;50.908;4.204;2022-09-11T00:47:46;16.30;99.90
15717;DHT22;7960;50.908;4.204;2022-09-11T00:50:17;16.20;99.90
15717;DHT22;7960;50.908;4.204;2022-09-11T00:52:50;16.30;99.90
15717;DHT22;7960;50.908;4.204;2022-09-11T00:55:20;16.50;99.90
15717;DHT22;7960;50.908;4.204;2022-09-11T00:57:51;16.40;99.90
15717;DHT22;7960;50.908;4.204;2022-09-11T01:00:20;16.30;99.90
15717;DHT22;7960;50.908;4.204;2022-09-11T01:02:48;16.30;99.90
15717;DHT22;7960;50.908;4.204;2022-09-11T01:05:18;16.40;99.90
15717;DHT22;7960;50.908;4.204;2022-09-11T01:07:49;16.40;99.90
15717;DHT22;7960;50.908;4.204;2022-09-11T01:10:19;16.40;99.90
15717;DHT22;7960;50.908;4.204;2022-09-11T01:12:52;16.20;99.90
15717;DHT22;7960;50.908;4.204;2022-09-11T01:15:26;16.30;99.90
15717;DHT22;7960;50.908;4.204;2022-09-11T01:18:02;16.30;99.90
15717;DHT22;7960;50.908;4.204;2022-09-11T01:20:40;16.30;99.90
15717;DHT22;7960;50.908;4.204;2022-09-11T01:23:54;16.30;99.90
15717;DHT22;7960;50.908;4.204;2022-09-11T01:26:37;16.20;99.90
15717;DHT22;7960;50.908;4.204;2022-09-11T01:29:14;16.10;99.90
15717;DHT22;7960;50.908;4.204;2022-09-11T01:31:52;16.00;99.90
15717;DHT22;7960;50.908;4.204;2022-09-11T01:34:22;15.80;99.90
15717;DHT22;7960;50.908;4.204;2022-09-11T01:36:53;15.90;99.90
15717;DHT22;7960;50.908;4.204;2022-09-11T01:39:24;15.90;99.90
15717;DHT22;7960;50.908;4.204;2022-09-11T01:41:57;15.90;99.90
15717;DHT22;7960;50.908;4.204;2022-09-11T01:44:31;15.90;99.90
15717;DHT22;7960;50.908;4.204;2022-09-11T01:47:01;15.80;99.90
15717;DHT22;7960;50.908;4.204;2022-09-11T01:49:33;15.80;99.90
15717;DHT22;7960;50.908;4.204;2022-09-11T01:52:04;15.80;99.90
15717;DHT22;7960;50.908;4.204;2022-09-11T01:54:36;15.70;99.90
15717;DHT22;7960;50.908;4.204;2022-09-11T01:57:08;15.70;99.90
15717;DHT22;7960;50.908;4.204;2022-09-11T01:59:43;15.60;99.90
15717;DHT22;7960;50.908;4.204;2022-09-11T02:02:17;15.60;99.90
15717;DHT22;7960;50.908;4.204;2022-09-11T02:04:48;15.60;99.90
15717;DHT22;7960;50.908;4.204;2022-09-11T02:07:20;15.70;99.90
15717;DHT22;7960;50.908;4.204;2022-09-11T02:09:50;15.80;99.90
15717;DHT22;7960;50.908;4.204;2022-09-11T02:12:19;15.90;99.90
15717;DHT22;7960;50.908;4.204;2022-09-11T02:14:50;15.90;99.90
15717;DHT22;7960;50.908;4.204;2022-09-11T02:17:22;16.00;99.90
15717;DHT22;7960;50.908;4.204;2022-09-11T02:19:54;16.10;99.90
15717;DHT22;7960;50.908;4.204;2022-09-11T02:22:22;16.00;99.90
15717;DHT22;7960;50.908;4.204;2022-09-11T02:24:49;16.00;99.90
15717;DHT22;7960;50.908;4.204;2022-09-11T02:27:20;16.10;99.90
15717;DHT22;7960;50.908;4.204;2022-09-11T02:29:49;16.20;99.90
15717;DHT22;7960;50.908;4.204;2022-09-11T02:32:17;16.30;99.90
15717;DHT22;7960;50.908;4.204;2022-09-11T02:34:45;16.30;99.90
15717;DHT22;7960;50.908;4.204;2022-09-11T02:37:19;16.20;99.90
15717;DHT22;7960;50.908;4.204;2022-09-11T02:42:52;16.30;99.90
15717;DHT22;7960;50.908;4.204;2022-09-11T02:45:33;16.20;99.90
15717;DHT22;7960;50.908;4.204;2022-09-11T02:48:21;16.30;99.90
15717;DHT22;7960;50.908;4.204;2022-09-11T02:50:55;16.30;99.90
15717;DHT22;7960;50.908;4.204;2022-09-11T02:53:30;16.20;99.90
15717;DHT22;7960;50.908;4.204;2022-09-11T02:56:04;16.10;99.90
15717;DHT22;7960;50.908;4.204;2022-09-11T02:58:38;16.10;99.90
15717;DHT22;7960;50.908;4.204;2022-09-11T03:01:08;16.00;99.90
15717;DHT22;7960;50.908;4.204;2022-09-11T03:03:37;16.00;99.90
15717;DHT22;7960;50.908;4.204;2022-09-11T03:06:05;15.80;99.90
15717;DHT22;7960;50.908;4.204;2022-09-11T03:08:33;15.80;99.90
15717;DHT22;7960;50.908;4.204;2022-09-11T03:11:00;15.80;99.90
15717;DHT22;7960;50.908;4.204;2022-09-11T03:13:27;15.70;99.90
15717;DHT22;7960;50.908;4.204;2022-09-11T03:15:54;15.80;99.90
15717;DHT22;7960;50.908;4.204;2022-09-11T03:18:22;15.90;99.90
15717;DHT22;7960;50.908;4.204;2022-09-11T03:20:49;15.80;99.90
15717;DHT22;7960;50.908;4.204;2022-09-11T03:23:16;15.80;99.90
15717;DHT22;7960;50.908;4.204;2022-09-11T03:25:43;15.60;99.90
15717;DHT22;7960;50.908;4.204;2022-09-11T03:28:10;15.70;99.90
15717;DHT22;7960;50.908;4.204;2022-09-11T03:30:38;15.50;99.90
15717;DHT22;7960;50.908;4.204;2022-09-11T03:33:06;15.40;99.90
15717;DHT22;7960;50.908;4.204;2022-09-11T03:35:35;15.40;99.90
15717;DHT22;7960;50.908;4.204;2022-09-11T03:38:02;15.20;99.90
15717;DHT22;7960;50.908;4.204;2022-09-11T03:40:28;15.00;99.90
15717;DHT22;7960;50.908;4.204;2022-09-11T03:42:56;14.80;99.90
15717;DHT22;7960;50.908;4.204;2022-09-11T03:45:24;14.80;99.90
15717;DHT22;7960;50.908;4.204;2022-09-11T03:47:51;14.60;99.90
15717;DHT22;7960;50.908;4.204;2022-09-11T03:50:18;14.60;99.90
15717;DHT22;7960;50.908;4.204;2022-09-11T03:52:46;14.40;99.90
15717;DHT22;7960;50.908;4.204;2022-09-11T03:55:13;14.40;99.90
15717;DHT22;7960;50.908;4.204;2022-09-11T03:57:41;14.40;99.90
15717;DHT22;7960;50.908;4.204;2022-09-11T04:00:09;14.40;99.90
15717;DHT22;7960;50.908;4.204;2022-09-11T04:02:36;14.50;99.90
15717;DHT22;7960;50.908;4.204;2022-09-11T04:05:04;14.70;99.90
15717;DHT22;7960;50.908;4.204;2022-09-11T04:07:32;14.70;99.90
15717;DHT22;7960;50.908;4.204;2022-09-11T04:10:00;14.80;99.90
15717;DHT22;7960;50.908;4.204;2022-09-11T04:12:27;14.80;99.90
15717;DHT22;7960;50.908;4.204;2022-09-11T04:14:54;14.80;99.90
15717;DHT22;7960;50.908;4.204;2022-09-11T04:17:21;14.80;99.90
15717;DHT22;7960;50.908;4.204;2022-09-11T04:19:48;14.70;99.90
15717;DHT22;7960;50.908;4.204;2022-09-11T04:22:15;14.70;99.90
15717;DHT22;7960;50.908;4.204;2022-09-11T04:24:42;14.70;99.90
15717;DHT22;7960;50.908;4.204;2022-09-11T04:27:10;14.80;99.90
15717;DHT22;7960;50.908;4.204;2022-09-11T04:29:37;14.70;99.90
15717;DHT22;7960;50.908;4.204;2022-09-11T04:32:04;14.70;99.90
15717;DHT22;7960;50.908;4.204;2022-09-11T04:34:31;14.60;99.90
15717;DHT22;7960;50.908;4.204;2022-09-11T04:36:58;14.70;99.90
15717;DHT22;7960;50.908;4.204;2022-09-11T04:39:25;14.70;99.90
15717;DHT22;7960;50.908;4.204;2022-09-11T04:41:51;14.70;99.90
15717;DHT22;7960;50.908;4.204;2022-09-11T04:44:21;14.70;99.90
15717;DHT22;7960;50.908;4.204;2022-09-11T04:46:50;14.60;99.90
15717;DHT22;7960;50.908;4.204;2022-09-11T04:49:17;14.60;99.90
15717;DHT22;7960;50.908;4.204;2022-09-11T04:51:44;14.50;99.90
15717;DHT22;7960;50.908;4.204;2022-09-11T04:54:12;14.50;99.90
15717;DHT22;7960;50.908;4.204;2022-09-11T04:56:39;14.40;99.90
15717;DHT22;7960;50.908;4.204;2022-09-11T04:59:09;14.40;99.90
15717;DHT22;7960;50.908;4.204;2022-09-11T05:01:39;14.40;99.90
15717;DHT22;7960;50.908;4.204;2022-09-11T05:04:06;14.30;99.90
15717;DHT22;7960;50.908;4.204;2022-09-11T05:06:33;14.30;99.90
15717;DHT22;7960;50.908;4.204;2022-09-11T05:09:04;14.30;99.90
15717;DHT22;7960;50.908;4.204;2022-09-11T05:11:32;14.30;99.90
15717;DHT22;7960;50.908;4.204;2022-09-11T05:13:59;14.40;99.90
15717;DHT22;7960;50.908;4.204;2022-09-11T05:16:27;14.40;99.90
15717;DHT22;7960;50.908;4.204;2022-09-11T05:18:56;14.40;99.90
15717;DHT22;7960;50.908;4.204;2022-09-11T05:21:25;14.40;99.90
15717;DHT22;7960;50.908;4.204;2022-09-11T05:23:53;14.40;99.90
15717;DHT22;7960;50.908;4.204;2022-09-11T05:26:22;14.40;99.90
15717;DHT22;7960;50.908;4.204;2022-09-11T05:28:52;14.40;99.90
15717;DHT22;7960;50.908;4.204;2022-09-11T05:31:20;14.40;99.90
15717;DHT22;7960;50.908;4.204;2022-09-11T05:33:47;14.40;99.90
15717;DHT22;7960;50.908;4.204;2022-09-11T05:36:15;14.40;99.90
15717;DHT22;7960;50.908;4.204;2022-09-11T05:38:42;14.40;99.90
15717;DHT22;7960;50.908;4.204;2022-09-11T05:41:11;14.40;99.90
15717;DHT22;7960;50.908;4.204;2022-09-11T05:43:39;14.40;99.90
15717;DHT22;7960;50.908;4.204;2022-09-11T05:46:07;14.30;99.90
15717;DHT22;7960;50.908;4.204;2022-09-11T05:48:34;14.40;99.90
15717;DHT22;7960;50.908;4.204;2022-09-11T05:51:05;14.40;99.90
15717;DHT22;7960;50.908;4.204;2022-09-11T05:53:34;14.50;99.90
15717;DHT22;7960;50.908;4.204;2022-09-11T05:56:06;14.50;99.90
15717;DHT22;7960;50.908;4.204;2022-09-11T05:58:33;14.50;99.90
15717;DHT22;7960;50.908;4.204;2022-09-11T06:01:05;14.50;99.90
15717;DHT22;7960;50.908;4.204;2022-09-11T06:03:33;14.50;99.90
15717;DHT22;7960;50.908;4.204;2022-09-11T06:06:00;14.40;99.90
15717;DHT22;7960;50.908;4.204;2022-09-11T06:08:28;14.40;99.90
15717;DHT22;7960;50.908;4.204;2022-09-11T06:10:57;14.40;99.90
15717;DHT22;7960;50.908;4.204;2022-09-11T06:13:24;14.30;99.90
15717;DHT22;7960;50.908;4.204;2022-09-11T06:15:51;14.20;99.90
15717;DHT22;7960;50.908;4.204;2022-09-11T06:18:18;14.10;99.90
15717;DHT22;7960;50.908;4.204;2022-09-11T06:20:54;14.10;99.90
15717;DHT22;7960;50.908;4.204;2022-09-11T06:23:21;14.20;99.90
15717;DHT22;7960;50.908;4.204;2022-09-11T06:25:48;14.00;99.90
15717;DHT22;7960;50.908;4.204;2022-09-11T06:28:20;14.10;99.90
15717;DHT22;7960;50.908;4.204;2022-09-11T06:30:48;14.10;99.90
15717;DHT22;7960;50.908;4.204;2022-09-11T06:33:15;14.20;99.90
15717;DHT22;7960;50.908;4.204;2022-09-11T06:35:54;14.30;99.90
15717;DHT22;7960;50.908;4.204;2022-09-11T06:38:21;14.40;99.90
15717;DHT22;7960;50.908;4.204;2022-09-11T06:40:48;14.60;99.90
15717;DHT22;7960;50.908;4.204;2022-09-11T06:43:16;14.50;99.90
15717;DHT22;7960;50.908;4.204;2022-09-11T06:45:44;14.50;99.90
15717;DHT22;7960;50.908;4.204;2022-09-11T06:48:13;14.60;99.90
15717;DHT22;7960;50.908;4.204;2022-09-11T06:50:40;14.60;99.90
15717;DHT22;7960;50.908;4.204;2022-09-11T06:53:07;14.70;99.90
15717;DHT22;7960;50.908;4.204;2022-09-11T06:55:34;14.70;99.90
15717;DHT22;7960;50.908;4.204;2022-09-11T06:58:01;14.60;99.90
15717;DHT22;7960;50.908;4.204;2022-09-11T07:00:28;14.60;99.90
15717;DHT22;7960;50.908;4.204;2022-09-11T07:02:56;14.80;99.90
15717;DHT22;7960;50.908;4.204;2022-09-11T07:05:23;14.80;99.90
15717;DHT22;7960;50.908;4.204;2022-09-11T07:07:52;14.80;99.90
15717;DHT22;7960;50.908;4.204;2022-09-11T07:10:20;14.70;99.90
15717;DHT22;7960;50.908;4.204;2022-09-11T07:12:48;14.80;99.90
15717;DHT22;7960;50.908;4.204;2022-09-11T07:15:17;14.90;99.90
15717;DHT22;7960;50.908;4.204;2022-09-11T07:17:44;15.10;99.90
15717;DHT22;7960;50.908;4.204;2022-09-11T07:20:12;15.20;99.90
15717;DHT22;7960;50.908;4.204;2022-09-11T07:22:39;15.20;99.90
15717;DHT22;7960;50.908;4.204;2022-09-11T07:25:06;15.30;99.90
15717;DHT22;7960;50.908;4.204;2022-09-11T07:27:33;15.10;99.90
15717;DHT22;7960;50.908;4.204;2022-09-11T07:30:00;15.20;99.90
15717;DHT22;7960;50.908;4.204;2022-09-11T07:32:27;15.30;99.90
15717;DHT22;7960;50.908;4.204;2022-09-11T07:34:55;15.30;99.90
15717;DHT22;7960;50.908;4.204;2022-09-11T07:37:23;15.50;99.90
15717;DHT22;7960;50.908;4.204;2022-09-11T07:39:50;15.60;99.90
15717;DHT22;7960;50.908;4.204;2022-09-11T07:42:17;15.60;99.90
15717;DHT22;7960;50.908;4.204;2022-09-11T07:44:44;15.40;99.90
15717;DHT22;7960;50.908;4.204;2022-09-11T07:47:11;15.40;99.90
15717;DHT22;7960;50.908;4.204;2022-09-11T07:49:37;15.70;99.90
15717;DHT22;7960;50.908;4.204;2022-09-11T07:52:04;15.70;99.90
15717;DHT22;7960;50.908;4.204;2022-09-11T07:54:33;15.60;99.90
15717;DHT22;7960;50.908;4.204;2022-09-11T07:56:59;15.50;99.90
15717;DHT22;7960;50.908;4.204;2022-09-11T07:59:27;15.50;99.90
15717;DHT22;7960;50.908;4.204;2022-09-11T08:01:56;15.50;99.90
15717;DHT22;7960;50.908;4.204;2022-09-11T08:04:25;15.60;99.90
15717;DHT22;7960;50.908;4.204;2022-09-11T08:06:53;15.60;99.90
15717;DHT22;7960;50.908;4.204;2022-09-11T08:09:20;15.70;99.90
15717;DHT22;7960;50.908;4.204;2022-09-11T08:11:48;16.00;99.90
15717;DHT22;7960;50.908;4.204;2022-09-11T08:14:17;16.20;99.90
15717;DHT22;7960;50.908;4.204;2022-09-11T08:16:47;16.30;99.90
15717;DHT22;7960;50.908;4.204;2022-09-11T08:19:17;16.30;99.90
15717;DHT22;7960;50.908;4.204;2022-09-11T08:21:44;16.40;99.90
15717;DHT22;7960;50.908;4.204;2022-09-11T08:24:12;16.40;99.90
15717;DHT22;7960;50.908;4.204;2022-09-11T08:26:39;16.50;99.90
15717;DHT22;7960;50.908;4.204;2022-09-11T08:29:07;16.70;99.90
15717;DHT22;7960;50.908;4.204;2022-09-11T08:31:34;16.80;99.90
15717;DHT22;7960;50.908;4.204;2022-09-11T08:34:01;16.80;99.90
15717;DHT22;7960;50.908;4.204;2022-09-11T08:36:28;16.80;99.90
15717;DHT22;7960;50.908;4.204;2022-09-11T08:38:57;16.90;99.90
15717;DHT22;7960;50.908;4.204;2022-09-11T08:41:35;16.90;99.90
15717;DHT22;7960;50.908;4.204;2022-09-11T08:44:13;16.70;99.90
15717;DHT22;7960;50.908;4.204;2022-09-11T08:46:44;16.80;99.90
15717;DHT22;7960;50.908;4.204;2022-09-11T08:49:16;16.80;99.90
15717;DHT22;7960;50.908;4.204;2022-09-11T08:51:45;17.00;99.90
15717;DHT22;7960;50.908;4.204;2022-09-11T08:54:21;17.10;99.90
15717;DHT22;7960;50.908;4.204;2022-09-11T08:56:54;17.00;99.90
15717;DHT22;7960;50.908;4.204;2022-09-11T08:59:32;17.00;99.90
15717;DHT22;7960;50.908;4.204;2022-09-11T09:02:13;17.00;99.90
15717;DHT22;7960;50.908;4.204;2022-09-11T09:05:02;17.20;99.90
15717;DHT22;7960;50.908;4.204;2022-09-11T09:07:42;17.20;99.90
15717;DHT22;7960;50.908;4.204;2022-09-11T09:10:21;17.30;99.90
15717;DHT22;7960;50.908;4.204;2022-09-11T09:12:57;17.40;99.90
15717;DHT22;7960;50.908;4.204;2022-09-11T09:15:35;17.40;99.90
15717;DHT22;7960;50.908;4.204;2022-09-11T09:18:10;17.50;99.90
15717;DHT22;7960;50.908;4.204;2022-09-11T09:20:41;17.40;99.90
15717;DHT22;7960;50.908;4.204;2022-09-11T09:23:16;17.40;99.90
15717;DHT22;7960;50.908;4.204;2022-09-11T09:25:44;17.40;99.90
15717;DHT22;7960;50.908;4.204;2022-09-11T09:28:18;17.50;99.90
15717;DHT22;7960;50.908;4.204;2022-09-11T09:30:50;17.30;99.90
15717;DHT22;7960;50.908;4.204;2022-09-11T09:33:25;17.40;99.90
15717;DHT22;7960;50.908;4.204;2022-09-11T09:35:55;17.50;99.90
15717;DHT22;7960;50.908;4.204;2022-09-11T09:38:28;17.60;99.90
15717;DHT22;7960;50.908;4.204;2022-09-11T09:41:09;17.60;99.90
15717;DHT22;7960;50.908;4.204;2022-09-11T09:43:45;17.60;99.90
15717;DHT22;7960;50.908;4.204;2022-09-11T09:46:20;17.60;99.90
15717;DHT22;7960;50.908;4.204;2022-09-11T09:48:48;17.90;99.90
15717;DHT22;7960;50.908;4.204;2022-09-11T09:51:16;18.10;99.90
15717;DHT22;7960;50.908;4.204;2022-09-11T09:53:45;18.30;99.90
15717;DHT22;7960;50.908;4.204;2022-09-11T09:56:16;18.40;99.90
15717;DHT22;7960;50.908;4.204;2022-09-11T09:58:49;18.30;99.90
15717;DHT22;7960;50.908;4.204;2022-09-11T10:01:44;18.40;99.90
15717;DHT22;7960;50.908;4.204;2022-09-11T10:04:15;18.60;99.90
15717;DHT22;7960;50.908;4.204;2022-09-11T10:06:44;18.70;99.90
15717;DHT22;7960;50.908;4.204;2022-09-11T10:09:23;18.70;99.90
15717;DHT22;7960;50.908;4.204;2022-09-11T10:11:56;19.00;99.90
15717;DHT22;7960;50.908;4.204;2022-09-11T10:14:29;19.00;99.90
15717;DHT22;7960;50.908;4.204;2022-09-11T10:17:00;19.00;99.90
15717;DHT22;7960;50.908;4.204;2022-09-11T10:19:39;19.40;99.90
15717;DHT22;7960;50.908;4.204;2022-09-11T10:22:28;19.80;99.90
15717;DHT22;7960;50.908;4.204;2022-09-11T10:25:04;19.90;99.90
15717;DHT22;7960;50.908;4.204;2022-09-11T10:27:33;19.80;99.90
15717;DHT22;7960;50.908;4.204;2022-09-11T10:30:00;19.70;99.90
15717;DHT22;7960;50.908;4.204;2022-09-11T10:32:34;19.80;99.90
15717;DHT22;7960;50.908;4.204;2022-09-11T10:35:08;20.10;99.90
15717;DHT22;7960;50.908;4.204;2022-09-11T10:37:35;20.30;99.90
15717;DHT22;7960;50.908;4.204;2022-09-11T10:40:06;20.20;99.90
15717;DHT22;7960;50.908;4.204;2022-09-11T10:42:34;20.00;99.90
15717;DHT22;7960;50.908;4.204;2022-09-11T10:45:10;20.40;99.90
15717;DHT22;7960;50.908;4.204;2022-09-11T10:47:40;20.70;99.90
15717;DHT22;7960;50.908;4.204;2022-09-11T10:50:17;20.90;99.90
15717;DHT22;7960;50.908;4.204;2022-09-11T10:52:58;20.70;99.90
15717;DHT22;7960;50.908;4.204;2022-09-11T10:55:31;20.80;99.90
15717;DHT22;7960;50.908;4.204;2022-09-11T10:58:06;20.80;99.90
15717;DHT22;7960;50.908;4.204;2022-09-11T11:00:34;21.20;99.90
15717;DHT22;7960;50.908;4.204;2022-09-11T11:03:07;21.20;99.90
15717;DHT22;7960;50.908;4.204;2022-09-11T11:05:44;21.20;99.90
15717;DHT22;7960;50.908;4.204;2022-09-11T11:11:34;21.20;99.90
15717;DHT22;7960;50.908;4.204;2022-09-11T11:14:16;21.50;99.90
15717;DHT22;7960;50.908;4.204;2022-09-11T11:16:55;21.30;99.90
15717;DHT22;7960;50.908;4.204;2022-09-11T11:19:44;21.60;99.90
15717;DHT22;7960;50.908;4.204;2022-09-11T11:22:24;21.70;99.90
15717;DHT22;7960;50.908;4.204;2022-09-11T11:25:05;21.60;99.90
15717;DHT22;7960;50.908;4.204;2022-09-11T11:27:50;21.70;99.90
15717;DHT22;7960;50.908;4.204;2022-09-11T11:30:20;22.10;99.90
15717;DHT22;7960;50.908;4.204;2022-09-11T11:33:05;21.90;99.90
15717;DHT22;7960;50.908;4.204;2022-09-11T11:35:42;21.60;99.90
15717;DHT22;7960;50.908;4.204;2022-09-11T11:38:17;22.00;99.90
15717;DHT22;7960;50.908;4.204;2022-09-11T11:40:48;22.20;99.90
15717;DHT22;7960;50.908;4.204;2022-09-11T11:43:21;22.50;99.90
15717;DHT22;7960;50.908;4.204;2022-09-11T11:45:53;22.70;99.90
15717;DHT22;7960;50.908;4.204;2022-09-11T11:48:24;23.10;99.90
15717;DHT22;7960;50.908;4.204;2022-09-11T11:50:57;23.40;99.90
15717;DHT22;7960;50.908;4.204;2022-09-11T11:53:31;23.00;99.90
15717;DHT22;7960;50.908;4.204;2022-09-11T11:56:06;23.10;99.90
15717;DHT22;7960;50.908;4.204;2022-09-11T11:58:43;23.10;99.90
15717;DHT22;7960;50.908;4.204;2022-09-11T12:01:18;23.20;99.90
15717;DHT22;7960;50.908;4.204;2022-09-11T12:03:51;22.90;99.90
15717;DHT22;7960;50.908;4.204;2022-09-11T12:06:23;23.30;99.90
15717;DHT22;7960;50.908;4.204;2022-09-11T12:08:51;23.70;99.90
15717;DHT22;7960;50.908;4.204;2022-09-11T12:11:26;23.50;99.90
15717;DHT22;7960;50.908;4.204;2022-09-11T12:13:55;23.90;99.90
15717;DHT22;7960;50.908;4.204;2022-09-11T12:16:25;23.60;99.90
15717;DHT22;7960;50.908;4.204;2022-09-11T12:19:01;23.90;99.90
15717;DHT22;7960;50.908;4.204;2022-09-11T12:21:40;23.80;99.90
15717;DHT22;7960;50.908;4.204;2022-09-11T12:24:18;23.40;99.90
15717;DHT22;7960;50.908;4.204;2022-09-11T12:26:45;23.50;99.90
15717;DHT22;7960;50.908;4.204;2022-09-11T12:32:39;23.80;99.90
15717;DHT22;7960;50.908;4.204;2022-09-11T12:38:16;23.90;99.90
15717;DHT22;7960;50.908;4.204;2022-09-11T12:40:49;23.60;99.90
15717;DHT22;7960;50.908;4.204;2022-09-11T12:43:47;23.70;99.90
15717;DHT22;7960;50.908;4.204;2022-09-11T12:49:17;23.60;99.90
15717;DHT22;7960;50.908;4.204;2022-09-11T12:51:50;23.30;99.90
15717;DHT22;7960;50.908;4.204;2022-09-11T12:54:22;23.30;99.90
15717;DHT22;7960;50.908;4.204;2022-09-11T12:56:57;23.50;99.90
15717;DHT22;7960;50.908;4.204;2022-09-11T12:59:28;24.00;99.90
15717;DHT22;7960;50.908;4.204;2022-09-11T13:01:56;24.40;99.90
15717;DHT22;7960;50.908;4.204;2022-09-11T13:04:25;24.40;99.90
15717;DHT22;7960;50.908;4.204;2022-09-11T15:00:35;27.50;99.90
15717;DHT22;7960;50.908;4.204;2022-09-11T15:03:03;27.50;99.90
15717;DHT22;7960;50.908;4.204;2022-09-11T15:05:30;27.40;99.90
15717;DHT22;7960;50.908;4.204;2022-09-11T23:36:40;17.80;99.90
15717;DHT22;7960;50.908;4.204;2022-09-11T23:39:08;17.90;99.90
15717;DHT22;7960;50.908;4.204;2022-09-11T23:41:35;17.80;99.90
15717;DHT22;7960;50.908;4.204;2022-09-11T23:44:02;17.80;99.90
15717;DHT22;7960;50.908;4.204;2022-09-11T23:46:29;17.70;99.90
15717;DHT22;7960;50.908;4.204;2022-09-11T23:48:56;17.70;99.90
15717;DHT22;7960;50.908;4.204;2022-09-11T23:51:24;17.60;99.90
15717;DHT22;7960;50.908;4.204;2022-09-11T23:53:51;17.70;99.90
15717;DHT22;7960;50.908;4.204;2022-09-11T23:56:18;17.80;99.90
15717;DHT22;7960;50.908;4.204;2022-09-11T23:58:45;17.80;99.90
